Kingsley, Michigan
Current Conditions -  °F | °C
As of 3:53 AM on Monday 20 Oct 2014 (Local Time) from KTVC Reporting Station
Overcast Overcast  
Wind Chill: 51°   Ceiling: 4400
Heat Index: 51°   Visibility: 10mi
Dew Point: 45°   Wind: 5mph
Humidity: 80%   Direction: 200°SSW
Pressure: 29.74"   Gusts: NA
Location:  44.58°N, 85.54°W
Report Text: KTVC 200753Z AUTO 20004KT 10SM BKN044 OVC060 11/07 A2974 RMK AO2 SLP073 T01060072
Loading
Personal Weather Stations






























Interactive Weather Map
Tropical Storm Tracking
New forecast layout! Learn more

10-Day Weather Forecast

Advertisements
Track Severe Weather on mobile